Time;durP1;ratioP1;P1;durP2;ratioP2;P2;SDS_P1;SDS_P2;PMS_P1;PMS_P2;Temp;Humidity;BMP_temperature;BMP_pressure;BME280_temperature;BME280_humidity;BME280_pressure;Samples;Min_cycle;Max_cycle;Signal;HPM_P1;HPM_P2
2021/04/16 00:01:53;;;;;;;3.90;2.35;;;;;;;1.82;82.56;101501.13;5030795;28;20044;-75
2021/04/16 00:04:18;;;;;;;3.83;1.85;;;;;;;1.84;82.87;101497.78;5021703;28;20042;-76
2021/04/16 00:06:43;;;;;;;4.80;2.53;;;;;;;1.82;82.33;101506.34;5030825;28;20099;-75
2021/04/16 00:09:09;;;;;;;4.10;2.50;;;;;;;1.78;82.99;101496.59;5030820;28;20037;-76
2021/04/16 00:11:34;;;;;;;4.20;2.60;;;;;;;1.82;83.17;101493.31;5030827;28;20091;-76
2021/04/16 00:14:00;;;;;;;4.75;2.38;;;;;;;1.83;82.75;101492.50;5029688;28;20045;-75
2021/04/16 00:16:28;;;;;;;4.13;2.25;;;;;;;1.88;82.52;101489.25;5030936;28;20041;-75
2021/04/16 00:18:54;;;;;;;4.72;2.67;;;;;;;1.90;83.10;101486.75;5030774;28;20033;-76
2021/04/16 00:21:20;;;;;;;7.68;3.05;;;;;;;1.89;82.70;101492.78;5030609;28;20087;-76
2021/04/16 00:23:45;;;;;;;4.28;2.28;;;;;;;1.91;82.81;101485.91;5030533;28;20092;-75
2021/04/16 00:26:12;;;;;;;4.25;2.33;;;;;;;1.94;82.63;101486.94;5038802;28;20456;-75
2021/04/16 00:28:39;;;;;;;4.40;2.70;;;;;;;1.93;82.58;101482.56;5024244;28;20041;-75
2021/04/16 00:31:16;;;;;;;5.05;2.50;;;;;;;1.96;82.82;101476.59;5034405;28;20441;-75
2021/04/16 00:33:42;;;;;;;4.40;2.50;;;;;;;2.02;82.47;101476.88;5014712;28;20041;-75
2021/04/16 00:36:09;;;;;;;7.60;2.33;;;;;;;2.05;82.54;101481.31;5031252;28;20033;-76
2021/04/16 00:38:35;;;;;;;4.15;2.20;;;;;;;1.98;82.04;101469.75;5034414;28;20052;-75
2021/04/16 00:41:06;;;;;;;5.68;2.20;;;;;;;2.08;82.67;101471.91;5034256;28;20033;-75
2021/04/16 00:43:33;;;;;;;5.10;2.63;;;;;;;2.04;82.16;101470.00;5017964;28;20473;-75
2021/04/16 00:46:07;;;;;;;6.40;2.42;;;;;;;2.08;81.88;101465.84;5034236;28;20033;-75
2021/04/16 00:48:35;;;;;;;4.63;2.30;;;;;;;2.00;82.53;101467.22;5018319;28;20038;-75
2021/04/16 00:51:04;;;;;;;5.32;2.70;;;;;;;1.97;82.30;101465.38;5034035;28;20436;-75
2021/04/16 00:53:31;;;;;;;4.63;2.65;;;;;;;2.01;82.37;101463.78;5032495;28;20060;-75
2021/04/16 00:55:56;;;;;;;3.75;2.33;;;;;;;1.92;83.09;101459.06;5024578;28;20033;-75
2021/04/16 00:58:27;;;;;;;6.18;2.42;;;;;;;1.91;83.57;101459.88;5033997;28;20091;-75
2021/04/16 01:00:54;;;;;;;4.32;2.63;;;;;;;1.91;83.44;101462.47;5033743;28;20041;-75
2021/04/16 01:03:19;;;;;;;7.45;2.60;;;;;;;1.91;83.13;101450.38;5033586;28;20108;-75
2021/04/16 01:05:45;;;;;;;4.88;2.78;;;;;;;1.91;83.29;101460.78;5033895;28;20061;-76
2021/04/16 01:08:11;;;;;;;7.30;2.95;;;;;;;2.00;83.17;101462.91;5033645;28;20160;-75
2021/04/16 01:10:37;;;;;;;4.97;2.75;;;;;;;1.93;82.65;101461.72;5033707;28;20041;-75
2021/04/16 01:13:03;;;;;;;5.63;3.10;;;;;;;1.91;83.46;101463.41;5033522;28;20032;-75
2021/04/16 01:15:36;;;;;;;6.25;2.40;;;;;;;1.92;83.24;101456.47;5033780;28;20179;-75
2021/04/16 01:18:09;;;;;;;5.57;2.33;;;;;;;1.94;82.74;101462.63;5024410;28;20036;-74
2021/04/16 01:20:37;;;;;;;3.80;2.28;;;;;;;1.94;83.20;101457.44;5018516;28;20040;-74
2021/04/16 01:23:15;;;;;;;5.40;2.72;;;;;;;1.94;82.55;101458.31;5033292;28;20072;-75
2021/04/16 01:25:42;;;;;;;4.53;2.50;;;;;;;1.87;83.07;101451.06;5013896;28;20053;-75
2021/04/16 01:28:08;;;;;;;5.32;2.60;;;;;;;1.88;83.80;101446.72;5028813;28;20132;-75
2021/04/16 01:30:33;;;;;;;5.32;2.45;;;;;;;1.92;83.42;101444.34;5023934;28;20087;-75
2021/04/16 01:33:00;;;;;;;6.05;2.47;;;;;;;1.88;83.29;101444.13;5037139;28;20102;-76
2021/04/16 01:35:34;;;;;;;6.05;2.40;;;;;;;1.83;83.74;101438.72;5040378;28;20045;-76
2021/04/16 01:38:05;;;;;;;5.68;2.90;;;;;;;1.83;84.14;101438.72;5032883;28;20090;-75
2021/04/16 01:40:31;;;;;;;7.38;2.38;;;;;;;1.84;84.31;101434.41;5016904;28;20041;-75
2021/04/16 01:42:56;;;;;;;7.90;3.08;;;;;;;1.91;83.99;101439.03;5032726;28;20055;-75
2021/04/16 01:45:28;;;;;;;7.68;2.85;;;;;;;1.93;84.25;101446.09;5007190;28;20033;-75
2021/04/16 01:47:58;;;;;;;4.55;2.72;;;;;;;1.93;83.87;101434.81;5033069;28;20083;-75
2021/04/16 01:50:24;;;;;;;9.15;3.10;;;;;;;1.91;83.90;101439.03;5032994;28;20042;-75
2021/04/16 01:52:50;;;;;;;8.82;3.03;;;;;;;1.93;84.20;101440.91;5032572;28;20029;-76
2021/04/16 01:55:15;;;;;;;7.17;3.00;;;;;;;1.92;84.12;101433.91;5031702;28;20405;-75
2021/04/16 01:57:41;;;;;;;5.90;2.65;;;;;;;1.96;84.22;101432.31;5032969;28;20167;-75
2021/04/16 02:00:15;;;;;;;5.10;2.53;;;;;;;1.93;83.67;101429.59;5032599;28;20033;-75
2021/04/16 02:02:40;;;;;;;6.78;2.58;;;;;;;1.95;83.81;101438.38;5026166;28;20401;-75
2021/04/16 02:05:07;;;;;;;5.53;2.45;;;;;;;1.96;83.90;101432.31;5027217;28;20026;-75
2021/04/16 02:07:32;;;;;;;5.47;3.03;;;;;;;1.95;84.20;101428.84;5032410;28;20033;-76
2021/04/16 02:09:57;;;;;;;4.38;2.50;;;;;;;1.95;84.02;101427.97;5039697;28;20044;-75
2021/04/16 02:12:24;;;;;;;3.92;2.60;;;;;;;1.97;84.32;101435.00;5032163;28;20029;-75
2021/04/16 02:14:51;;;;;;;5.13;2.85;;;;;;;1.98;84.18;101433.28;5031137;28;20132;-75
2021/04/16 02:17:24;;;;;;;5.10;2.33;;;;;;;2.00;84.23;101420.34;5032474;28;20056;-75
2021/04/16 02:19:50;;;;;;;4.53;2.47;;;;;;;2.02;84.27;101417.00;5032357;28;20037;-75
2021/04/16 02:22:19;;;;;;;5.68;2.38;;;;;;;2.08;83.69;101424.16;5032167;28;20183;-75
2021/04/16 02:24:46;;;;;;;4.88;2.25;;;;;;;2.03;83.71;101429.16;5032397;28;20033;-75
2021/04/16 02:27:13;;;;;;;6.80;2.70;;;;;;;2.02;84.17;101432.63;5032045;28;20042;-75
2021/04/16 02:29:39;;;;;;;4.78;2.15;;;;;;;2.03;84.17;101426.56;5020012;28;20033;-76
2021/04/16 02:32:08;;;;;;;5.63;2.70;;;;;;;2.03;84.33;101420.47;5039096;28;20072;-75
2021/04/16 02:34:34;;;;;;;6.60;2.67;;;;;;;2.07;83.89;101417.16;5016810;28;20030;-75
2021/04/16 02:37:02;;;;;;;6.35;2.78;;;;;;;2.01;84.45;101423.00;5031836;28;20457;-75
2021/04/16 02:39:29;;;;;;;6.68;3.20;;;;;;;2.02;85.07;101430.00;5031670;28;20065;-75
2021/04/16 02:41:55;;;;;;;5.43;2.63;;;;;;;2.02;84.08;101421.28;5031650;28;20037;-75
2021/04/16 02:44:21;;;;;;;6.03;3.00;;;;;;;2.10;84.67;101422.53;5031922;28;20068;-75
2021/04/16 02:46:47;;;;;;;8.02;3.22;;;;;;;2.11;83.89;101419.09;5031961;28;20132;-75
2021/04/16 02:49:13;;;;;;;5.47;2.65;;;;;;;2.08;83.99;101418.97;5030999;28;20497;-75
2021/04/16 02:51:38;;;;;;;7.32;3.40;;;;;;;2.11;84.06;101422.56;5031511;28;20108;-75
2021/04/16 02:54:04;;;;;;;5.00;2.83;;;;;;;2.08;84.24;101412.03;5031702;28;20481;-75
2021/04/16 02:56:30;;;;;;;5.72;2.38;;;;;;;2.07;84.16;101411.94;5031546;28;20061;-75
2021/04/16 02:58:57;;;;;;;5.63;3.10;;;;;;;2.05;84.62;101419.72;5031706;28;20413;-75
2021/04/16 03:01:23;;;;;;;4.80;2.65;;;;;;;2.10;83.93;101422.53;5030316;28;20489;-75
2021/04/16 03:03:48;;;;;;;7.57;3.15;;;;;;;2.05;84.19;101422.31;5031352;28;20404;-75
2021/04/16 03:06:14;;;;;;;6.75;2.92;;;;;;;2.14;84.58;101412.28;5031551;28;20063;-75
2021/04/16 03:08:39;;;;;;;4.30;2.80;;;;;;;2.13;84.04;101418.31;5031301;28;20120;-75
2021/04/16 03:11:07;;;;;;;6.93;3.00;;;;;;;2.10;84.20;101420.81;5022062;28;20029;-75
2021/04/16 03:13:32;;;;;;;8.40;2.90;;;;;;;2.04;84.52;101412.72;5015267;28;20033;-74
2021/04/16 03:15:58;;;;;;;5.35;2.55;;;;;;;2.10;84.32;101417.31;5031525;28;20048;-74
2021/04/16 03:18:23;;;;;;;5.72;3.15;;;;;;;2.13;84.62;101418.31;5031338;28;20035;-74
2021/04/16 03:20:48;;;;;;;7.15;3.03;;;;;;;2.16;84.37;101421.06;5031267;28;20468;-74
2021/04/16 03:23:14;;;;;;;4.95;2.72;;;;;;;2.22;84.14;101411.72;5031062;28;20120;-74
2021/04/16 03:25:40;;;;;;;9.27;3.20;;;;;;;2.24;84.21;101412.69;5038528;28;20619;-74
2021/04/16 03:28:05;;;;;;;6.93;2.72;;;;;;;2.23;83.84;101414.41;5031187;28;20386;-74
2021/04/16 03:30:32;;;;;;;9.60;2.97;;;;;;;2.23;84.14;101414.41;5031180;28;20045;-74
2021/04/16 03:32:57;;;;;;;7.10;2.72;;;;;;;2.12;84.64;101419.16;5038093;28;20088;-74
2021/04/16 03:35:23;;;;;;;5.10;2.88;;;;;;;2.10;85.05;101415.59;5031234;28;20505;-74
2021/04/16 03:37:49;;;;;;;5.47;3.15;;;;;;;2.14;84.63;101412.28;5038193;28;20025;-74
2021/04/16 03:40:18;;;;;;;6.60;3.15;;;;;;;2.17;83.67;101419.34;5031055;28;20528;-74
2021/04/16 03:42:43;;;;;;;7.72;2.42;;;;;;;2.06;84.77;101424.09;5030773;28;20478;-74
2021/04/16 03:45:10;;;;;;;5.88;3.17;;;;;;;2.09;84.16;101423.34;5031003;28;20042;-74
2021/04/16 03:47:35;;;;;;;6.35;3.50;;;;;;;2.04;84.97;101417.03;5021669;28;20486;-74
2021/04/16 03:50:00;;;;;;;5.28;2.83;;;;;;;2.06;84.88;101431.91;5031039;28;20036;-74
2021/04/16 03:52:28;;;;;;;5.78;2.90;;;;;;;2.07;84.92;101422.38;5017256;28;20044;-74
2021/04/16 03:54:54;;;;;;;7.07;2.90;;;;;;;2.02;84.93;101421.28;5034044;28;20076;-74
2021/04/16 03:57:20;;;;;;;6.90;3.00;;;;;;;2.05;85.07;101418.84;5030776;28;20041;-75
2021/04/16 03:59:46;;;;;;;5.93;3.05;;;;;;;2.03;84.92;101429.16;5031139;28;20046;-75
2021/04/16 04:02:12;;;;;;;7.57;2.90;;;;;;;1.99;85.21;101424.63;5034847;28;20033;-75
2021/04/16 04:04:37;;;;;;;5.22;2.40;;;;;;;2.00;84.83;101433.38;5033706;28;20060;-75
2021/04/16 04:07:02;;;;;;;6.63;2.90;;;;;;;2.00;85.38;101426.44;5022148;28;20029;-75
2021/04/16 04:09:28;;;;;;;6.47;2.78;;;;;;;2.00;85.33;101423.84;5033882;28;20030;-75
2021/04/16 04:11:53;;;;;;;9.57;3.30;;;;;;;2.00;85.15;101433.38;5034476;28;20494;-75
2021/04/16 04:14:19;;;;;;;6.18;2.90;;;;;;;1.98;85.14;101430.69;5042033;28;20068;-75
2021/04/16 04:16:50;;;;;;;6.40;3.00;;;;;;;1.98;85.16;101434.16;5034802;28;20485;-75
2021/04/16 04:19:17;;;;;;;8.15;2.75;;;;;;;2.04;85.79;101433.53;5034713;28;20041;-76
2021/04/16 04:21:42;;;;;;;8.68;3.40;;;;;;;2.01;85.51;101428.22;5026229;28;20040;-76
2021/04/16 04:24:08;;;;;;;6.43;2.85;;;;;;;1.99;85.03;101435.06;5019170;28;20117;-76
2021/04/16 04:26:34;;;;;;;4.97;2.50;;;;;;;1.96;85.20;101434.94;5031967;28;20030;-76
2021/04/16 04:28:59;;;;;;;5.65;2.47;;;;;;;1.99;85.16;101435.06;5036865;28;20099;-75
2021/04/16 04:31:24;;;;;;;5.88;2.58;;;;;;;1.92;85.71;101439.13;5028630;28;20041;-76
2021/04/16 04:33:49;;;;;;;8.27;2.45;;;;;;;1.95;85.54;101438.38;5018379;28;20033;-73
2021/04/16 04:36:15;;;;;;;5.13;2.70;;;;;;;1.92;85.65;101438.25;5033235;28;20033;-75
2021/04/16 04:38:40;;;;;;;6.07;3.10;;;;;;;1.92;85.03;101433.91;5034232;28;20106;-75
2021/04/16 04:41:05;;;;;;;6.63;2.60;;;;;;;1.84;85.61;101440.50;5034152;28;20033;-75
2021/04/16 04:43:31;;;;;;;5.10;2.70;;;;;;;1.84;84.33;101434.41;5033899;28;20033;-75
2021/04/16 04:45:56;;;;;;;7.63;2.60;;;;;;;1.78;85.63;101447.16;5034176;28;20045;-75
2021/04/16 04:48:21;;;;;;;6.83;2.77;;;;;;;1.77;85.96;101445.38;5033977;28;20044;-75
2021/04/16 04:50:47;;;;;;;5.47;2.70;;;;;;;1.79;85.60;101447.22;5034057;28;20037;-75
2021/04/16 04:53:12;;;;;;;8.75;2.70;;;;;;;1.81;85.46;101457.69;5033806;28;20036;-73
2021/04/16 04:55:37;;;;;;;7.38;3.22;;;;;;;1.83;85.51;101458.66;5008211;28;20067;-74
2021/04/16 04:58:03;;;;;;;8.18;3.33;;;;;;;1.86;85.87;101454.50;5024764;28;20604;-74
2021/04/16 05:00:29;;;;;;;7.03;3.13;;;;;;;1.92;85.24;101453.88;5022669;28;20033;-74
2021/04/16 05:02:55;;;;;;;5.43;2.30;;;;;;;2.00;84.87;101455.09;5033430;28;20109;-74
2021/04/16 05:05:22;;;;;;;8.38;3.28;;;;;;;1.97;85.23;101448.03;5032680;28;20118;-74
2021/04/16 05:07:47;;;;;;;5.25;2.20;;;;;;;1.98;85.31;101451.50;5033651;28;20045;-74
2021/04/16 05:10:14;;;;;;;4.63;2.22;;;;;;;1.94;85.07;101457.44;5033695;28;20033;-74
2021/04/16 05:12:39;;;;;;;5.00;2.72;;;;;;;1.90;85.02;101455.50;5040162;28;20449;-74
2021/04/16 05:15:06;;;;;;;7.43;2.58;;;;;;;2.00;84.99;101462.00;5032526;28;20116;-74
2021/04/16 05:17:32;;;;;;;10.50;2.55;;;;;;;2.04;84.73;101459.56;5010500;28;20111;-74
2021/04/16 05:19:58;;;;;;;7.40;3.10;;;;;;;2.08;84.70;101456.31;5011894;28;20065;-74
2021/04/16 05:22:23;;;;;;;8.20;2.83;;;;;;;2.09;84.88;101458.06;5016452;28;20076;-74
2021/04/16 05:24:48;;;;;;;5.95;2.42;;;;;;;2.07;85.08;101454.53;5020338;28;20030;-74
2021/04/16 05:27:16;;;;;;;5.78;2.28;;;;;;;2.13;85.28;101454.78;5016772;28;20555;-74
2021/04/16 05:29:41;;;;;;;5.90;2.47;;;;;;;2.21;84.75;101457.72;5031777;28;20038;-74
2021/04/16 05:32:08;;;;;;;4.75;2.40;;;;;;;2.28;84.71;101464.06;5032921;28;20095;-74
2021/04/16 05:34:33;;;;;;;6.45;2.95;;;;;;;2.30;84.93;101452.00;5033388;28;20041;-74
2021/04/16 05:36:59;;;;;;;7.25;3.03;;;;;;;2.29;84.62;101460.66;5031615;28;20033;-75
2021/04/16 05:39:24;;;;;;;7.38;2.90;;;;;;;2.30;84.44;101450.28;5016389;28;20502;-74
2021/04/16 05:41:50;;;;;;;5.80;2.55;;;;;;;2.32;84.79;101455.56;5013158;28;20029;-74
2021/04/16 05:44:15;;;;;;;6.38;2.53;;;;;;;2.29;84.07;101458.94;5016601;28;20053;-75
2021/04/16 05:46:40;;;;;;;5.95;2.20;;;;;;;2.30;84.40;101458.09;5015275;28;20069;-75
2021/04/16 05:49:07;;;;;;;5.75;2.47;;;;;;;2.32;84.30;101465.97;5022418;28;20091;-75
2021/04/16 05:51:33;;;;;;;7.20;2.05;;;;;;;2.32;84.54;101460.78;5016902;28;20115;-74
2021/04/16 05:53:58;;;;;;;5.88;2.60;;;;;;;2.31;83.96;101454.69;5030962;28;20585;-74
2021/04/16 05:56:24;;;;;;;6.75;2.75;;;;;;;2.32;84.42;101451.25;5031123;28;20414;-74
2021/04/16 05:58:49;;;;;;;8.82;2.47;;;;;;;2.38;84.31;101451.50;5030803;28;20053;-74
2021/04/16 06:01:15;;;;;;;6.47;2.88;;;;;;;2.35;84.04;101451.34;5012874;28;20052;-75
2021/04/16 06:03:43;;;;;;;7.72;2.38;;;;;;;2.42;84.20;101453.41;5014245;28;20037;-74
2021/04/16 06:06:09;;;;;;;8.02;2.85;;;;;;;2.44;83.84;101450.88;5012947;28;20037;-74
2021/04/16 06:08:34;;;;;;;6.63;2.88;;;;;;;2.43;83.54;101449.06;5033298;28;20038;-74
2021/04/16 06:11:00;;;;;;;6.07;2.53;;;;;;;2.49;83.82;101449.34;5032515;28;20126;-74
2021/04/16 06:13:27;;;;;;;8.80;3.22;;;;;;;2.53;83.68;101450.34;5032343;28;20045;-74
2021/04/16 06:15:52;;;;;;;7.57;2.50;;;;;;;2.50;83.39;101445.03;5032441;28;20037;-75
2021/04/16 06:18:19;;;;;;;10.02;3.42;;;;;;;2.47;84.24;101452.72;5032391;28;20083;-75
2021/04/16 06:20:45;;;;;;;9.13;2.90;;;;;;;2.55;83.54;101454.81;5031015;28;20037;-75
2021/04/16 06:23:10;;;;;;;8.80;2.88;;;;;;;2.54;83.75;101454.72;5031415;28;20124;-74
2021/04/16 06:25:35;;;;;;;7.20;3.38;;;;;;;2.54;83.69;101454.72;5021071;28;20057;-75
2021/04/16 06:28:02;;;;;;;7.13;3.30;;;;;;;2.63;84.40;101449.91;5030934;28;20037;-75
2021/04/16 06:30:30;;;;;;;8.98;3.28;;;;;;;2.74;83.77;101445.13;5032189;28;20043;-75
2021/04/16 06:32:59;;;;;;;7.80;3.50;;;;;;;2.74;83.20;101450.34;5031887;28;20037;-75
2021/04/16 06:35:24;;;;;;;7.70;2.88;;;;;;;2.73;83.36;101448.56;5032187;28;20034;-74
2021/04/16 06:37:50;;;;;;;7.10;3.20;;;;;;;2.70;83.31;101446.72;5031957;28;20040;-75
2021/04/16 06:40:15;;;;;;;8.90;4.05;;;;;;;2.73;83.69;101448.56;5032000;28;20143;-75
2021/04/16 06:42:41;;;;;;;6.32;2.88;;;;;;;2.77;83.80;101450.47;5031792;28;20037;-75
2021/04/16 06:45:15;;;;;;;7.70;2.80;;;;;;;2.79;83.78;101454.03;5031941;28;20116;-75
2021/04/16 06:47:47;;;;;;;6.68;2.97;;;;;;;2.99;83.56;101447.88;5017977;28;20029;-75
2021/04/16 06:50:14;;;;;;;7.22;2.90;;;;;;;2.98;82.71;101451.31;5031886;28;20037;-75
2021/04/16 06:52:49;;;;;;;6.68;3.13;;;;;;;2.91;83.54;101451.91;5031633;28;20041;-75
2021/04/16 06:55:41;;;;;;;6.80;2.40;;;;;;;3.00;83.50;101444.44;5038870;28;20033;-75
2021/04/16 06:58:21;;;;;;;7.07;3.05;;;;;;;3.05;83.42;101445.50;5038938;28;20048;-75
2021/04/16 07:00:53;;;;;;;5.43;2.63;;;;;;;3.15;83.32;101446.75;5021386;28;20034;-75
2021/04/16 07:03:24;;;;;;;;;;;;;;;3.21;83.22;101446.09;5028432;28;20040;-75
2021/04/16 07:05:53;;;;;;;5.03;2.30;;;;;;;3.25;83.09;101443.69;5010604;28;19914;-74
2021/04/16 07:08:27;;;;;;;6.60;2.55;;;;;;;3.28;82.88;101450.72;5014697;28;20034;-75
2021/04/16 07:10:56;;;;;;;7.28;2.50;;;;;;;3.32;82.86;101454.34;5026154;28;20531;-75
2021/04/16 07:13:38;;;;;;;6.60;2.42;;;;;;;3.32;82.39;101452.59;5021901;28;20060;-75
2021/04/16 07:16:05;;;;;;;7.20;2.95;;;;;;;3.41;82.50;101437.31;5030307;28;20072;-75
2021/04/16 07:18:36;;;;;;;7.38;3.08;;;;;;;3.39;82.47;101448.53;5030075;28;20477;-75
2021/04/16 07:21:02;;;;;;;5.13;2.58;;;;;;;3.39;82.20;101454.63;5031176;28;20039;-75
2021/04/16 07:23:27;;;;;;;7.63;2.53;;;;;;;3.40;82.61;101459.00;5029769;28;20117;-75
2021/04/16 07:26:32;;;;;;;6.93;3.15;;;;;;;3.36;82.51;101459.72;5031238;28;20056;-75
2021/04/16 07:28:59;;;;;;;8.82;2.83;;;;;;;3.29;83.24;101468.16;5013854;28;20460;-75
2021/04/16 07:31:42;;;;;;;6.43;2.42;;;;;;;3.29;83.04;101470.75;5030039;28;20033;-75
2021/04/16 07:34:17;;;;;;;8.05;2.75;;;;;;;3.32;83.01;101470.88;5038225;28;20048;-75
2021/04/16 07:36:43;;;;;;;9.85;3.63;;;;;;;3.43;82.91;101472.19;5031003;28;20068;-75
2021/04/16 07:39:15;;;;;;;7.47;2.97;;;;;;;3.52;82.68;101474.25;5031066;28;20029;-75
2021/04/16 07:41:50;;;;;;;8.88;4.03;;;;;;;3.59;82.88;101477.97;5038065;28;20041;-75
2021/04/16 07:44:29;;;;;;;5.78;2.80;;;;;;;3.63;82.28;101470.31;5031106;28;20497;-75
2021/04/16 07:47:00;;;;;;;8.40;3.00;;;;;;;3.65;83.07;101468.66;5031098;28;20033;-75
2021/04/16 07:49:36;;;;;;;10.70;2.97;;;;;;;3.73;82.02;101472.44;5030919;28;20091;-75
2021/04/16 07:52:25;;;;;;;7.00;2.92;;;;;;;3.84;81.71;101475.44;5030745;28;20056;-75
2021/04/16 07:55:16;;;;;;;7.07;2.95;;;;;;;3.91;82.21;101473.94;5023606;28;20046;-75
2021/04/16 07:57:57;;;;;;;7.97;2.70;;;;;;;4.13;81.72;101473.84;5017421;28;20102;-75
2021/04/16 08:00:22;;;;;;;7.45;2.88;;;;;;;4.13;80.41;101475.56;5031005;28;20247;-75
2021/04/16 08:03:08;;;;;;;9.23;3.65;;;;;;;4.24;81.24;101473.34;5037820;28;20120;-75
2021/04/16 08:05:38;;;;;;;8.05;3.15;;;;;;;4.37;80.70;101468.56;5015270;28;20490;-75
2021/04/16 08:08:18;;;;;;;8.05;3.22;;;;;;;4.47;80.23;101481.97;5037736;28;20037;-75
2021/04/16 08:10:46;;;;;;;12.45;4.40;;;;;;;4.60;80.54;101484.16;5017930;28;20505;-75
2021/04/16 08:13:18;;;;;;;8.80;3.30;;;;;;;4.60;80.09;101486.78;5029405;28;20069;-75
2021/04/16 08:15:44;;;;;;;5.70;2.55;;;;;;;4.57;78.73;101481.44;5025603;28;20092;-76
2021/04/16 08:18:18;;;;;;;8.63;2.97;;;;;;;4.56;78.79;101484.91;5016910;28;20038;-75
2021/04/16 08:20:55;;;;;;;7.45;2.88;;;;;;;4.54;78.90;101482.22;5012951;28;20482;-75
2021/04/16 08:23:21;;;;;;;7.68;3.38;;;;;;;4.69;78.87;101479.25;5028975;28;20037;-75
2021/04/16 08:25:53;;;;;;;9.52;3.40;;;;;;;4.66;78.28;101476.50;4998726;28;20041;-75
2021/04/16 08:28:28;;;;;;;9.50;3.08;;;;;;;4.59;79.13;101471.94;5028742;28;20129;-75
2021/04/16 08:31:04;;;;;;;9.10;2.95;;;;;;;4.72;78.58;101471.50;5030739;28;20116;-75
2021/04/16 08:33:50;;;;;;;8.75;3.40;;;;;;;4.78;78.31;101476.03;5029116;28;20033;-75
2021/04/16 08:36:22;;;;;;;8.50;3.70;;;;;;;4.86;78.97;101477.16;5030581;28;20044;-75
2021/04/16 08:39:01;;;;;;;9.57;2.78;;;;;;;4.87;78.64;101478.03;5029421;28;20044;-75
2021/04/16 08:41:31;;;;;;;6.03;3.00;;;;;;;4.93;77.66;101480.88;5030490;28;20036;-75
2021/04/16 08:44:01;;;;;;;7.40;3.33;;;;;;;4.92;79.13;101482.59;5030396;28;20076;-75
2021/04/16 08:46:43;;;;;;;12.88;3.75;;;;;;;4.98;78.14;101484.53;5029266;28;20067;-75
2021/04/16 08:49:18;;;;;;;9.57;3.70;;;;;;;5.10;78.49;101481.41;5034047;28;20116;-75
2021/04/16 08:51:47;;;;;;;7.63;3.22;;;;;;;5.09;76.66;101477.91;5033934;28;20036;-75
2021/04/16 08:54:34;;;;;;;6.60;3.22;;;;;;;5.21;77.64;101480.91;5041121;28;20040;-75
2021/04/16 08:57:01;;;;;;;5.40;2.55;;;;;;;5.39;75.68;101477.06;5034209;28;20400;-75
2021/04/16 08:59:33;;;;;;;8.93;3.03;;;;;;;5.46;77.14;101474.66;5033875;28;20037;-75
2021/04/16 09:02:17;;;;;;;;;;;;;;;5.58;75.54;101479.41;5032783;28;20045;-75
2021/04/16 09:04:52;;;;;;;10.35;3.00;;;;;;;5.44;76.25;101480.69;5020899;28;19913;-75
2021/04/16 09:07:45;;;;;;;7.40;2.60;;;;;;;5.38;76.61;101480.53;5024615;28;20418;-75
2021/04/16 09:10:16;;;;;;;12.32;3.75;;;;;;;5.62;76.82;101472.50;5033658;28;20099;-75
2021/04/16 09:12:43;;;;;;;9.85;2.90;;;;;;;5.78;75.43;101466.84;5033382;28;20525;-75
2021/04/16 09:15:20;;;;;;;7.72;2.65;;;;;;;5.83;76.01;101464.38;5033259;28;20037;-75
2021/04/16 09:18:06;;;;;;;7.32;2.75;;;;;;;5.86;75.08;101457.47;5040299;28;20025;-75
2021/04/16 09:20:34;;;;;;;5.78;2.92;;;;;;;5.99;75.19;101453.50;5033052;28;20117;-75
2021/04/16 09:23:02;;;;;;;8.05;3.30;;;;;;;6.05;74.50;101464.16;5032954;28;20069;-75
2021/04/16 09:25:47;;;;;;;6.45;3.00;;;;;;;5.86;74.32;101461.84;5023779;28;20040;-75
2021/04/16 09:28:21;;;;;;;6.38;2.97;;;;;;;6.02;74.42;101456.19;5033265;28;20413;-75
2021/04/16 09:30:48;;;;;;;6.85;2.67;;;;;;;6.19;73.34;101459.28;5040585;28;20045;-75
2021/04/16 09:33:24;;;;;;;7.57;3.28;;;;;;;6.14;73.18;101451.28;5032945;28;20037;-75
2021/04/16 09:36:05;;;;;;;8.57;2.88;;;;;;;6.28;72.78;101456.88;5033232;28;20029;-75
2021/04/16 09:38:33;;;;;;;8.15;2.70;;;;;;;6.41;72.96;101451.97;5033290;28;20025;-74
2021/04/16 09:41:09;;;;;;;4.68;2.50;;;;;;;6.57;72.55;101452.38;5033178;28;20033;-75
2021/04/16 09:43:36;;;;;;;6.93;2.63;;;;;;;6.75;71.26;101453.69;5017252;28;20041;-75
2021/04/16 09:46:30;;;;;;;7.30;2.47;;;;;;;6.76;70.70;101458.13;5033112;28;20048;-75
2021/04/16 09:49:02;;;;;;;6.18;2.97;;;;;;;6.72;71.17;101451.00;5031748;28;20048;-75
2021/04/16 09:51:30;;;;;;;7.97;3.15;;;;;;;6.82;71.60;101463.50;5031009;28;20072;-75
2021/04/16 09:54:07;;;;;;;5.97;2.60;;;;;;;6.98;70.84;101449.88;5032581;28;20056;-75
2021/04/16 09:56:34;;;;;;;6.95;2.65;;;;;;;7.11;70.32;101447.53;5012120;28;20037;-75
2021/04/16 09:59:04;;;;;;;9.13;2.85;;;;;;;7.00;70.57;101442.94;5028257;28;20029;-75
2021/04/16 10:01:30;;;;;;;6.78;3.00;;;;;;;7.18;70.84;101446.84;5023995;28;20040;-75
2021/04/16 10:03:58;;;;;;;7.03;2.47;;;;;;;7.29;69.09;101449.69;5014121;28;20029;-75
2021/04/16 10:06:29;;;;;;;7.75;2.72;;;;;;;7.17;69.47;101453.81;5016528;28;20046;-75
2021/04/16 10:09:16;;;;;;;4.57;2.65;;;;;;;7.14;69.64;101440.59;5019939;28;20550;-77
2021/04/16 10:11:53;;;;;;;6.57;2.80;;;;;;;7.20;69.96;101452.97;5030635;28;20080;-78
2021/04/16 10:14:30;;;;;;;7.57;3.15;;;;;;;7.10;69.67;101440.50;5012595;28;20038;-77
2021/04/16 10:17:01;;;;;;;8.40;3.15;;;;;;;7.26;69.19;101445.25;5014587;28;20072;-76
2021/04/16 10:19:31;;;;;;;5.68;2.50;;;;;;;7.34;69.91;101438.44;5038522;28;20033;-75
2021/04/16 10:22:06;;;;;;;7.30;2.90;;;;;;;7.49;68.57;101436.97;5030590;28;20057;-75
2021/04/16 10:28:52;;;;;;;10.05;3.95;;;;;;;7.78;67.15;101443.72;5032833;28;20117;-77
2021/04/16 10:41:01;;;;;;;7.50;2.53;;;;;;;8.25;65.68;101427.97;5025618;28;20038;-76
2021/04/16 10:58:35;;;;;;;5.45;1.98;;;;;;;8.47;64.04;101413.44;5016010;28;20124;-76
2021/04/16 11:05:32;;;;;;;6.93;2.65;;;;;;;8.59;62.92;101406.59;5031055;28;20041;-76
2021/04/16 11:16:05;;;;;;;5.97;2.60;;;;;;;8.63;62.47;101419.84;5031436;28;20493;-76
2021/04/16 11:28:24;;;;;;;5.30;2.20;;;;;;;9.43;58.70;101413.97;5008529;28;20041;-76
2021/04/16 11:31:58;;;;;;;8.90;2.38;;;;;;;9.82;58.30;101409.13;5025860;28;20558;-76
2021/04/16 12:40:20;;;;;;;7.15;2.33;;;;;;;9.75;51.81;101413.47;5027816;28;20458;-76
2021/04/16 12:42:45;;;;;;;3.53;1.40;;;;;;;9.54;52.92;101413.22;5032517;28;20033;-76
2021/04/16 12:45:13;;;;;;;5.32;1.67;;;;;;;9.51;52.85;101408.81;5033737;28;20053;-77
2021/04/16 12:47:38;;;;;;;7.88;1.90;;;;;;;9.41;52.31;101402.53;5034004;28;20057;-76
2021/04/16 12:50:06;;;;;;;4.85;1.77;;;;;;;9.45;52.72;101398.19;5034812;28;20805;-76
2021/04/16 12:52:31;;;;;;;6.72;1.88;;;;;;;9.44;52.84;101402.56;5040810;28;20040;-76
2021/04/16 12:54:57;;;;;;;3.25;1.60;;;;;;;9.54;52.98;101394.78;5034034;28;20041;-76
2021/04/16 12:57:35;;;;;;;7.22;2.50;;;;;;;9.57;52.87;101393.06;5033950;28;20044;-76
2021/04/16 13:00:04;;;;;;;3.97;1.73;;;;;;;9.74;53.57;101384.44;5032112;28;20029;-77
2021/04/16 13:02:31;;;;;;;5.15;2.28;;;;;;;9.94;53.19;101388.19;5033155;28;20041;-76
2021/04/16 13:05:00;;;;;;;4.32;1.60;;;;;;;10.16;51.71;101388.38;5034998;28;20113;-76
2021/04/16 13:07:26;;;;;;;6.63;2.08;;;;;;;10.16;52.54;101377.84;5026541;28;20033;-77
2021/04/16 13:09:52;;;;;;;6.35;1.73;;;;;;;10.02;51.45;101383.88;5033654;28;20440;-76
2021/04/16 13:12:19;;;;;;;4.75;1.73;;;;;;;9.97;51.46;101388.22;5033741;28;20029;-77
2021/04/16 13:14:45;;;;;;;6.47;1.85;;;;;;;9.88;52.46;101378.47;5033637;28;20486;-77
2021/04/16 13:17:13;;;;;;;4.75;1.75;;;;;;;10.01;52.51;101375.97;5033554;28;20502;-77
2021/04/16 13:19:41;;;;;;;7.15;1.63;;;;;;;10.00;52.45;101382.09;5033535;28;20110;-76
2021/04/16 13:22:13;;;;;;;5.20;2.10;;;;;;;10.00;51.14;101372.41;5034065;28;20409;-77
2021/04/16 13:24:39;;;;;;;6.10;1.60;;;;;;;9.93;51.81;101375.88;5017988;28;20037;-76
2021/04/16 13:27:08;;;;;;;5.30;1.90;;;;;;;10.20;51.79;101371.72;5022965;28;20109;-76
2021/04/16 13:29:33;;;;;;;4.85;1.42;;;;;;;10.46;50.63;101372.84;5017133;28;20136;-76
2021/04/16 13:32:00;;;;;;;6.78;1.85;;;;;;;10.34;49.59;101371.88;5030332;28;20043;-76
2021/04/16 13:34:26;;;;;;;5.03;1.70;;;;;;;10.40;49.71;101366.63;5032536;28;20029;-76
2021/04/16 13:36:52;;;;;;;4.35;1.50;;;;;;;10.55;48.71;101368.53;5032803;28;20041;-77
2021/04/16 13:39:19;;;;;;;7.78;1.85;;;;;;;10.66;49.73;101359.81;5032820;28;20037;-76
2021/04/16 13:41:44;;;;;;;5.10;1.67;;;;;;;10.84;48.62;101372.22;5027586;28;20035;-76